Time;durP1;ratioP1;P1;durP2;ratioP2;P2;SDS_P1;SDS_P2;PMS_P1;PMS_P2;Temp;Humidity;BMP_temperature;BMP_pressure;BME280_temperature;BME280_humidity;BME280_pressure;Samples;Min_cycle;Max_cycle;Signal;HPM_P1;HPM_P2
2022/01/20 00:00:43;;;;;;;0.75;0.73;;;4.30;99.90;;;;;;5054295;28;20079;-73
2022/01/20 00:03:14;;;;;;;0.15;0.15;;;4.40;99.90;;;;;;5054188;28;20140;-73
2022/01/20 00:27:23;;;;;;;0.10;0.10;;;4.40;99.90;;;;;;5066997;28;20033;-72
2022/01/20 00:32:23;;;;;;;0.10;0.10;;;4.40;99.90;;;;;;5053440;28;20067;-72
2022/01/20 00:37:29;;;;;;;0.10;0.10;;;4.40;99.90;;;;;;5053552;28;20452;-72
2022/01/20 00:39:56;;;;;;;0.00;0.00;;;4.40;99.90;;;;;;5068674;28;20036;-72
2022/01/20 00:42:23;;;;;;;0.10;0.10;;;4.50;99.90;;;;;;5052229;28;20041;-72
2022/01/20 00:44:49;;;;;;;0.00;0.00;;;4.60;99.90;;;;;;5067876;28;20037;-72
2022/01/20 00:47:17;;;;;;;1.65;1.35;;;4.60;99.90;;;;;;5039772;28;20052;-72
2022/01/20 00:49:44;;;;;;;0.03;0.03;;;4.50;99.90;;;;;;5029642;28;20053;-72
2022/01/20 00:52:11;;;;;;;0.00;0.00;;;4.50;99.90;;;;;;5029479;28;20062;-72
2022/01/20 00:54:37;;;;;;;0.00;0.00;;;4.50;99.90;;;;;;5045145;28;20056;-72
2022/01/20 00:57:05;;;;;;;0.10;0.10;;;4.60;99.90;;;;;;5044776;28;20056;-72
2022/01/20 00:59:32;;;;;;;0.00;0.00;;;4.60;99.90;;;;;;5029549;28;20080;-72
2022/01/20 01:02:05;;;;;;;0.55;0.55;;;4.60;99.90;;;;;;5044765;28;20057;-72
2022/01/20 01:04:31;;;;;;;0.10;0.10;;;4.50;99.90;;;;;;5029271;28;20058;-73
2022/01/20 01:07:23;;;;;;;0.10;0.10;;;4.50;99.90;;;;;;5029542;28;20426;-72
2022/01/20 01:09:52;;;;;;;0.10;0.10;;;4.50;99.90;;;;;;5041284;28;20068;-71
2022/01/20 01:12:28;;;;;;;0.00;0.00;;;4.60;99.90;;;;;;5028088;28;20119;-72
2022/01/20 01:14:54;;;;;;;0.10;0.10;;;4.60;99.90;;;;;;5029301;28;20120;-72
2022/01/20 01:22:30;;;;;;;0.00;0.00;;;4.60;99.90;;;;;;5029116;28;20520;-72
2022/01/20 01:24:58;;;;;;;0.03;0.03;;;4.60;99.90;;;;;;5029044;28;20141;-72
2022/01/20 01:28:41;;;;;;;0.10;0.10;;;4.60;99.90;;;;;;5027950;28;20407;-72
2022/01/20 01:32:32;;;;;;;0.10;0.10;;;4.50;99.90;;;;;;5028727;28;20073;-72
2022/01/20 01:36:20;;;;;;;0.10;0.10;;;4.60;99.90;;;;;;5028841;28;20474;-72
2022/01/20 01:40:01;;;;;;;0.00;0.00;;;4.50;99.90;;;;;;5028886;28;20112;-72
2022/01/20 01:43:43;;;;;;;0.00;0.00;;;4.60;99.90;;;;;;5028806;28;20069;-72
2022/01/20 01:47:24;;;;;;;0.10;0.10;;;4.60;99.90;;;;;;5028521;28;20057;-72
2022/01/20 01:51:05;;;;;;;0.13;0.13;;;4.50;99.90;;;;;;5028644;28;20053;-72
2022/01/20 01:54:47;;;;;;;0.00;0.00;;;4.50;99.90;;;;;;5028581;28;20057;-73
2022/01/20 01:58:28;;;;;;;0.10;0.10;;;4.50;99.90;;;;;;5028693;28;20041;-72
2022/01/20 02:02:10;;;;;;;0.17;0.17;;;4.50;99.90;;;;;;5027374;28;20414;-72
2022/01/20 02:17:57;;;;;;;0.10;0.10;;;4.60;99.90;;;;;;5028573;28;20061;-72
2022/01/20 02:21:38;;;;;;;0.10;0.10;;;4.50;99.90;;;;;;5027281;28;20076;-72
2022/01/20 02:25:20;;;;;;;0.10;0.10;;;4.50;99.90;;;;;;5028224;28;20062;-72
2022/01/20 02:29:02;;;;;;;0.10;0.10;;;4.50;99.90;;;;;;5027055;28;20061;-71
2022/01/20 02:32:44;;;;;;;0.00;0.00;;;4.40;99.90;;;;;;5028121;28;20057;-72
2022/01/20 02:36:25;;;;;;;0.00;0.00;;;4.40;99.90;;;;;;5028329;28;20057;-72
2022/01/20 02:47:59;;;;;;;0.10;0.10;;;4.30;99.90;;;;;;5027933;28;20110;-73
2022/01/20 02:51:14;;;;;;;;;;;4.30;99.90;;;;;;5028386;28;20058;-73
2022/01/20 02:54:55;;;;;;;0.05;0.05;;;4.30;99.90;;;;;;5027994;28;19921;-73
2022/01/20 02:58:36;;;;;;;0.10;0.10;;;4.40;99.90;;;;;;5028154;28;20081;-73
2022/01/20 03:02:18;;;;;;;0.13;0.13;;;4.30;99.90;;;;;;5028353;28;20064;-72
2022/01/20 03:06:00;;;;;;;0.10;0.10;;;4.20;99.90;;;;;;5027762;28;20045;-73
2022/01/20 03:09:41;;;;;;;0.10;0.10;;;4.30;99.90;;;;;;5029544;28;20049;-73
2022/01/20 03:13:22;;;;;;;0.10;0.10;;;4.40;99.90;;;;;;5031524;28;20821;-72
2022/01/20 03:17:03;;;;;;;0.63;0.63;;;4.30;99.90;;;;;;5031628;28;20059;-72
2022/01/20 03:20:45;;;;;;;0.25;0.25;;;4.20;99.90;;;;;;5031545;28;20115;-72
2022/01/20 03:24:26;;;;;;;0.00;0.00;;;4.20;99.90;;;;;;5031492;28;20115;-72
2022/01/20 03:28:07;;;;;;;1.52;1.42;;;4.30;99.90;;;;;;5031250;28;20057;-72
2022/01/20 03:31:48;;;;;;;0.10;0.10;;;4.20;99.90;;;;;;5031319;28;20522;-72
2022/01/20 03:35:29;;;;;;;0.10;0.10;;;4.00;99.90;;;;;;5031134;28;20738;-72
2022/01/20 03:39:10;;;;;;;0.10;0.10;;;4.10;99.90;;;;;;5031098;28;20445;-72
2022/01/20 03:42:52;;;;;;;0.10;0.10;;;4.00;99.90;;;;;;5030987;28;20434;-72
2022/01/20 03:46:12;;;;;;;;;;;4.00;99.90;;;;;;5031443;28;20094;-72
2022/01/20 03:53:39;;;;;;;0.85;0.85;;;4.10;99.90;;;;;;5030796;28;20633;-72
2022/01/20 03:57:19;;;;;;;0.05;0.05;;;4.20;99.90;;;;;;5030800;28;20060;-72
2022/01/20 04:01:00;;;;;;;0.10;0.10;;;4.30;99.90;;;;;;5030733;28;20057;-72
2022/01/20 04:04:42;;;;;;;0.10;0.10;;;4.30;99.90;;;;;;5030745;28;20881;-72
2022/01/20 04:08:23;;;;;;;0.00;0.00;;;4.20;99.90;;;;;;5030452;28;20065;-73
2022/01/20 04:12:04;;;;;;;0.00;0.00;;;4.10;99.90;;;;;;5030388;28;20060;-73
2022/01/20 04:15:45;;;;;;;0.05;0.05;;;4.20;99.90;;;;;;5030200;28;20065;-72
2022/01/20 04:19:30;;;;;;;0.28;0.28;;;4.00;99.90;;;;;;5030244;28;20679;-72
2022/01/20 04:23:13;;;;;;;0.10;0.10;;;4.10;99.90;;;;;;5029978;28;20065;-71
2022/01/20 05:31:27;;;;;;;0.00;0.00;;;3.20;99.90;;;;;;5026456;28;20055;-79
2022/01/20 05:33:53;;;;;;;0.10;0.10;;;3.20;99.90;;;;;;5058989;28;20036;-77
2022/01/20 05:36:19;;;;;;;0.00;0.00;;;3.10;99.90;;;;;;5059396;28;20037;-79
2022/01/20 05:38:44;;;;;;;0.10;0.10;;;3.10;99.90;;;;;;5060058;28;20037;-78
2022/01/20 05:41:10;;;;;;;0.10;0.10;;;3.00;99.90;;;;;;5062149;28;20024;-78
2022/01/20 05:43:36;;;;;;;1.20;1.10;;;2.90;99.90;;;;;;5062316;28;20037;-78
2022/01/20 05:46:04;;;;;;;0.10;0.10;;;3.00;99.90;;;;;;5060792;28;20127;-79
2022/01/20 05:48:35;;;;;;;1.27;1.17;;;3.10;99.90;;;;;;5051026;28;20039;-71
2022/01/20 05:51:05;;;;;;;0.20;0.20;;;3.10;99.90;;;;;;5053147;28;20052;-74
2022/01/20 05:53:32;;;;;;;0.10;0.10;;;3.10;99.90;;;;;;5051817;28;20064;-76
2022/01/20 05:55:58;;;;;;;0.10;0.10;;;3.00;99.90;;;;;;5051977;28;20302;-75
2022/01/20 05:58:25;;;;;;;0.00;0.00;;;3.00;99.90;;;;;;5050400;28;20044;-74
2022/01/20 06:00:50;;;;;;;0.10;0.10;;;3.00;99.90;;;;;;5051904;28;20025;-74
2022/01/20 06:06:01;;;;;;;0.45;0.45;;;3.00;99.90;;;;;;5051988;28;20044;-74
2022/01/20 06:08:27;;;;;;;0.38;0.38;;;3.10;99.90;;;;;;5051758;28;20037;-73
2022/01/20 06:10:53;;;;;;;0.10;0.10;;;3.10;99.90;;;;;;5051589;28;20040;-76
2022/01/20 06:13:19;;;;;;;0.10;0.10;;;3.00;99.90;;;;;;5051642;28;20029;-72
2022/01/20 06:15:45;;;;;;;0.40;0.40;;;3.00;99.90;;;;;;5051721;28;20064;-73
2022/01/20 06:18:12;;;;;;;0.00;0.00;;;2.90;99.90;;;;;;5051795;28;20052;-73
2022/01/20 06:20:39;;;;;;;0.10;0.10;;;3.10;99.90;;;;;;5061618;28;20079;-74
2022/01/20 06:23:09;;;;;;;0.10;0.10;;;3.10;99.90;;;;;;5071829;28;20033;-73
2022/01/20 06:25:36;;;;;;;0.10;0.10;;;3.10;99.90;;;;;;5070326;28;20058;-72
2022/01/20 06:28:05;;;;;;;6.75;1.45;;;3.00;99.90;;;;;;5067963;28;20029;-73
2022/01/20 06:30:32;;;;;;;0.00;0.00;;;3.00;99.90;;;;;;5049763;28;20028;-72
2022/01/20 06:32:58;;;;;;;0.10;0.10;;;3.00;99.90;;;;;;5051619;28;20040;-71
2022/01/20 06:35:24;;;;;;;0.30;0.30;;;2.90;99.90;;;;;;5056216;28;20032;-72
2022/01/20 06:37:51;;;;;;;0.10;0.10;;;2.90;99.90;;;;;;5033377;28;20040;-73
2022/01/20 06:40:24;;;;;;;0.35;0.35;;;2.90;99.90;;;;;;5049651;28;20036;-72
2022/01/20 06:42:50;;;;;;;0.10;0.10;;;2.90;99.90;;;;;;5051555;28;20033;-73
2022/01/20 06:45:19;;;;;;;0.10;0.10;;;2.90;99.90;;;;;;5070461;28;20151;-73
2022/01/20 06:47:45;;;;;;;0.10;0.10;;;2.90;99.90;;;;;;5054134;28;20125;-73
2022/01/20 06:50:12;;;;;;;2.22;1.00;;;3.00;99.90;;;;;;5055248;28;20108;-73
2022/01/20 06:52:39;;;;;;;0.22;0.22;;;3.00;99.90;;;;;;5056138;28;20060;-73
2022/01/20 06:55:10;;;;;;;0.00;0.00;;;3.00;99.90;;;;;;5065486;28;20061;-73
2022/01/20 06:57:38;;;;;;;0.77;0.57;;;3.00;99.90;;;;;;5063634;28;20031;-73
2022/01/20 07:00:07;;;;;;;0.20;0.20;;;3.00;99.90;;;;;;5062871;28;20511;-73
2022/01/20 07:02:33;;;;;;;0.00;0.00;;;3.00;99.90;;;;;;5075175;28;20032;-72
2022/01/20 07:04:59;;;;;;;0.50;0.50;;;2.90;99.90;;;;;;5075349;28;20063;-72
2022/01/20 07:07:24;;;;;;;0.52;0.52;;;2.90;99.90;;;;;;5075099;28;20128;-72
2022/01/20 07:09:50;;;;;;;2.38;0.90;;;2.90;99.90;;;;;;5071657;28;20044;-72
2022/01/20 07:12:16;;;;;;;0.55;0.55;;;3.00;99.90;;;;;;5073482;28;20033;-73
2022/01/20 07:14:41;;;;;;;0.20;0.20;;;3.00;99.90;;;;;;5075189;28;20032;-72
2022/01/20 07:17:07;;;;;;;0.30;0.30;;;2.90;99.90;;;;;;5075148;28;20097;-71
2022/01/20 07:19:33;;;;;;;0.00;0.00;;;3.00;99.90;;;;;;5073624;28;20528;-72
2022/01/20 07:22:00;;;;;;;2.88;2.00;;;3.00;99.90;;;;;;5074697;28;20481;-72
2022/01/20 07:24:30;;;;;;;0.25;0.25;;;3.00;99.90;;;;;;5073547;28;20043;-73
2022/01/20 07:26:59;;;;;;;0.10;0.10;;;3.00;99.90;;;;;;5073731;28;20035;-73
2022/01/20 07:29:27;;;;;;;3.13;2.92;;;3.00;99.90;;;;;;5073521;28;20028;-72
2022/01/20 07:31:53;;;;;;;0.10;0.10;;;3.10;99.90;;;;;;5073200;28;20201;-73
2022/01/20 07:34:19;;;;;;;0.10;0.10;;;3.10;99.90;;;;;;5074754;28;20039;-71
2022/01/20 07:36:45;;;;;;;0.20;0.20;;;3.20;99.90;;;;;;5074719;28;20032;-73
2022/01/20 07:39:11;;;;;;;0.88;0.85;;;3.20;99.90;;;;;;5073612;28;20040;-73
2022/01/20 07:41:37;;;;;;;0.47;0.47;;;3.20;99.90;;;;;;5069142;28;20029;-73
2022/01/20 07:44:03;;;;;;;0.57;0.57;;;3.30;99.90;;;;;;5054330;28;20037;-72
2022/01/20 07:46:29;;;;;;;0.00;0.00;;;3.20;99.90;;;;;;5054556;28;20570;-72
2022/01/20 07:48:54;;;;;;;0.10;0.10;;;3.30;99.90;;;;;;5057305;28;20036;-73
2022/01/20 07:51:20;;;;;;;0.00;0.00;;;3.30;99.90;;;;;;5053142;28;20066;-72
2022/01/20 07:53:46;;;;;;;0.10;0.10;;;3.30;99.90;;;;;;5053820;28;20449;-72
2022/01/20 07:56:13;;;;;;;0.30;0.30;;;3.30;99.90;;;;;;5053298;28;20032;-72
2022/01/20 07:58:39;;;;;;;0.30;0.30;;;3.30;99.90;;;;;;5054038;28;20079;-72
2022/01/20 08:01:06;;;;;;;0.20;0.20;;;3.40;99.90;;;;;;5053134;28;20035;-72
2022/01/20 08:03:31;;;;;;;0.95;0.95;;;3.30;99.90;;;;;;5052754;28;20033;-73
2022/01/20 08:05:57;;;;;;;6.40;3.30;;;3.30;99.90;;;;;;5054001;28;20037;-73
2022/01/20 08:08:23;;;;;;;0.10;0.10;;;3.30;99.90;;;;;;5053865;28;20135;-73
2022/01/20 08:10:49;;;;;;;0.10;0.10;;;3.30;99.90;;;;;;5069226;28;20025;-72
2022/01/20 08:13:15;;;;;;;0.10;0.10;;;3.40;99.90;;;;;;5053773;28;20505;-72
2022/01/20 08:15:41;;;;;;;0.30;0.30;;;3.50;99.90;;;;;;5052735;28;20037;-73
2022/01/20 08:18:07;;;;;;;0.10;0.10;;;3.50;99.90;;;;;;5054157;28;20059;-73
2022/01/20 08:20:34;;;;;;;0.10;0.10;;;3.50;99.90;;;;;;5052565;28;20389;-73
2022/01/20 08:23:01;;;;;;;0.10;0.10;;;3.50;99.90;;;;;;5053955;28;20033;-73
2022/01/20 08:25:26;;;;;;;0.00;0.00;;;3.50;99.90;;;;;;5052487;28;20448;-73
2022/01/20 08:27:53;;;;;;;0.10;0.10;;;3.50;99.90;;;;;;5053795;28;20033;-73
2022/01/20 08:30:22;;;;;;;0.40;0.40;;;3.60;99.90;;;;;;5052141;28;20033;-73
2022/01/20 08:32:49;;;;;;;0.32;0.32;;;3.60;99.90;;;;;;5053159;28;20053;-73
2022/01/20 08:35:18;;;;;;;0.00;0.00;;;3.60;99.90;;;;;;5057304;28;20048;-74
2022/01/20 08:37:45;;;;;;;0.10;0.10;;;3.70;99.90;;;;;;5052026;28;20494;-74
2022/01/20 08:40:15;;;;;;;0.00;0.00;;;3.70;99.90;;;;;;5053887;28;20029;-74
2022/01/20 08:42:45;;;;;;;0.10;0.10;;;3.80;99.90;;;;;;5052204;28;20079;-74
2022/01/20 08:45:15;;;;;;;0.22;0.22;;;3.90;99.90;;;;;;5051908;28;20401;-74
2022/01/20 08:47:42;;;;;;;5.68;0.77;;;4.10;99.90;;;;;;5051692;28;20033;-74
2022/01/20 08:50:11;;;;;;;0.10;0.10;;;4.10;99.90;;;;;;5053136;28;20421;-74
2022/01/20 08:52:38;;;;;;;1.33;1.23;;;4.20;99.90;;;;;;5053783;28;20136;-72
2022/01/20 08:55:06;;;;;;;0.00;0.00;;;4.30;99.90;;;;;;5051885;28;20033;-73
2022/01/20 08:57:32;;;;;;;0.10;0.10;;;4.40;99.90;;;;;;5053151;28;20043;-72
2022/01/20 08:59:58;;;;;;;0.00;0.00;;;4.40;99.90;;;;;;5053041;28;20041;-73
2022/01/20 09:02:24;;;;;;;0.00;0.00;;;4.40;99.90;;;;;;5053135;28;20526;-73
2022/01/20 09:04:50;;;;;;;0.10;0.10;;;4.50;99.90;;;;;;5060889;28;20098;-73
2022/01/20 09:07:17;;;;;;;0.10;0.10;;;4.50;99.90;;;;;;5062647;28;20371;-74
2022/01/20 09:09:46;;;;;;;0.40;0.40;;;4.60;99.90;;;;;;5052743;28;20033;-73
2022/01/20 09:17:31;;;;;;;1.50;1.40;;;5.00;99.90;;;;;;5052606;28;20104;-73
2022/01/20 09:19:58;;;;;;;0.10;0.10;;;5.00;99.90;;;;;;5052909;28;20098;-73
2022/01/20 09:22:27;;;;;;;0.10;0.10;;;4.90;99.90;;;;;;5051351;28;20025;-73
2022/01/20 09:24:53;;;;;;;0.55;0.50;;;5.00;99.90;;;;;;5051631;28;20465;-73
2022/01/20 09:27:19;;;;;;;0.20;0.20;;;5.10;99.90;;;;;;5055191;28;20051;-73
2022/01/20 09:29:46;;;;;;;0.00;0.00;;;5.10;99.90;;;;;;5065410;28;20074;-73
2022/01/20 09:32:13;;;;;;;0.20;0.20;;;5.10;99.90;;;;;;5070811;28;20054;-74
2022/01/20 09:34:40;;;;;;;0.05;0.05;;;5.30;99.90;;;;;;5070872;28;20086;-74
2022/01/20 09:37:06;;;;;;;0.10;0.10;;;5.30;99.90;;;;;;5054255;28;20032;-75
2022/01/20 09:39:41;;;;;;;0.10;0.10;;;5.30;99.90;;;;;;5053317;28;20025;-73
2022/01/20 09:42:08;;;;;;;0.43;0.43;;;5.30;99.90;;;;;;5036797;28;20108;-75
2022/01/20 09:44:34;;;;;;;0.65;0.65;;;5.30;99.90;;;;;;5069706;28;20031;-75
2022/01/20 09:47:01;;;;;;;0.00;0.00;;;5.30;99.90;;;;;;5053295;28;20033;-74
2022/01/20 09:49:26;;;;;;;0.52;0.52;;;5.50;99.90;;;;;;5051537;28;20036;-74
2022/01/20 09:51:53;;;;;;;3.17;0.68;;;5.60;99.90;;;;;;5050781;28;20081;-75
2022/01/20 09:54:19;;;;;;;0.10;0.10;;;5.80;99.90;;;;;;5052189;28;20445;-74
2022/01/20 09:56:45;;;;;;;0.00;0.00;;;5.70;99.90;;;;;;5052169;28;20056;-74
2022/01/20 09:59:12;;;;;;;1.35;0.40;;;5.60;99.90;;;;;;5050501;28;20024;-75
2022/01/20 10:01:42;;;;;;;0.00;0.00;;;5.60;99.90;;;;;;5051657;28;20319;-74
2022/01/20 10:04:37;;;;;;;0.00;0.00;;;5.50;99.90;;;;;;5050577;28;20045;-74
2022/01/20 10:07:11;;;;;;;0.00;0.00;;;5.40;99.90;;;;;;5037995;28;20445;-74
2022/01/20 10:09:45;;;;;;;0.03;0.03;;;5.40;99.90;;;;;;5050829;28;20029;-69
2022/01/20 10:12:15;;;;;;;0.00;0.00;;;5.30;99.90;;;;;;5051963;28;20071;-73
2022/01/20 10:14:45;;;;;;;0.00;0.00;;;5.20;99.90;;;;;;5050449;28;20482;-72
2022/01/20 10:17:18;;;;;;;0.10;0.10;;;5.20;99.90;;;;;;5050406;28;20033;-72
2022/01/20 10:19:45;;;;;;;0.20;0.20;;;5.10;99.90;;;;;;5050583;28;20262;-72
2022/01/20 10:22:16;;;;;;;0.03;0.03;;;5.10;99.90;;;;;;5050399;28;20056;-72
2022/01/20 10:25:03;;;;;;;0.30;0.30;;;5.10;99.90;;;;;;5051741;28;20334;-72
2022/01/20 10:27:46;;;;;;;0.00;0.00;;;5.30;99.90;;;;;;5051581;28;20103;-72
2022/01/20 10:30:13;;;;;;;0.08;0.08;;;5.40;99.90;;;;;;5050410;28;20078;-73
2022/01/20 10:32:42;;;;;;;0.10;0.10;;;5.40;99.90;;;;;;5051762;28;20055;-73
2022/01/20 10:35:11;;;;;;;0.10;0.10;;;5.40;99.90;;;;;;5070465;28;20041;-72
2022/01/20 10:37:40;;;;;;;0.22;0.22;;;5.40;99.90;;;;;;5070101;28;20058;-73
2022/01/20 10:40:15;;;;;;;0.00;0.00;;;5.40;99.90;;;;;;5070024;28;20036;-72
2022/01/20 10:42:44;;;;;;;0.10;0.10;;;5.50;99.90;;;;;;5073154;28;20043;-70
2022/01/20 10:45:27;;;;;;;0.20;0.20;;;5.60;99.90;;;;;;5072569;28;20033;-72
2022/01/20 10:48:00;;;;;;;0.00;0.00;;;5.70;99.90;;;;;;5073575;28;20029;-74
2022/01/20 10:50:30;;;;;;;2.63;2.40;;;5.90;99.90;;;;;;5072050;28;20047;-71
2022/01/20 10:52:59;;;;;;;0.00;0.00;;;5.90;99.90;;;;;;5072887;28;20112;-75
2022/01/20 10:55:35;;;;;;;0.00;0.00;;;5.80;99.90;;;;;;5071595;28;20028;-74
2022/01/20 10:58:23;;;;;;;0.08;0.08;;;5.70;99.90;;;;;;5074813;28;20052;-76
2022/01/20 11:00:52;;;;;;;0.00;0.00;;;5.90;99.90;;;;;;5076127;28;20033;-70
2022/01/20 11:03:20;;;;;;;0.25;0.25;;;6.50;99.90;;;;;;5070390;28;20055;-73
2022/01/20 11:05:51;;;;;;;0.00;0.00;;;6.70;99.90;;;;;;5070083;28;20115;-75
2022/01/20 11:08:18;;;;;;;15.55;3.70;;;6.70;99.90;;;;;;5070894;28;20029;-76
2022/01/20 11:10:45;;;;;;;0.00;0.00;;;6.50;99.90;;;;;;5070008;28;20086;-73
2022/01/20 11:13:15;;;;;;;0.00;0.00;;;6.20;99.90;;;;;;5068612;28;20035;-77
2022/01/20 11:15:42;;;;;;;0.08;0.08;;;6.00;99.90;;;;;;5050209;28;20134;-83
2022/01/20 11:18:09;;;;;;;0.00;0.00;;;5.90;99.90;;;;;;5049969;28;20037;-72
2022/01/20 11:20:52;;;;;;;0.10;0.10;;;5.90;99.90;;;;;;5051074;28;20052;-74
2022/01/20 11:23:18;;;;;;;0.00;0.00;;;5.90;99.90;;;;;;5049600;28;20124;-73
2022/01/20 11:25:45;;;;;;;0.05;0.05;;;5.90;99.90;;;;;;5049824;28;20119;-73
2022/01/20 11:28:17;;;;;;;0.05;0.05;;;5.90;99.90;;;;;;5050394;28;20481;-73
2022/01/20 11:31:00;;;;;;;0.00;0.00;;;5.80;99.90;;;;;;5054330;28;20113;-73
2022/01/20 11:33:43;;;;;;;0.00;0.00;;;5.90;99.90;;;;;;5054174;28;20040;-73
2022/01/20 11:36:28;;;;;;;0.10;0.10;;;5.80;99.90;;;;;;5054981;28;20513;-74
2022/01/20 11:39:03;;;;;;;1.27;0.63;;;5.80;99.90;;;;;;5055207;28;20036;-73
2022/01/20 11:41:47;;;;;;;11.88;0.98;;;6.20;99.90;;;;;;5054961;28;20041;-74
2022/01/20 11:44:17;;;;;;;0.10;0.10;;;6.40;99.90;;;;;;5054670;28;20067;-73
2022/01/20 11:46:45;;;;;;;1.23;1.20;;;6.40;99.90;;;;;;5054624;28;20074;-73
2022/01/20 11:49:19;;;;;;;0.10;0.10;;;6.10;99.90;;;;;;5054574;28;20051;-73
2022/01/20 11:51:57;;;;;;;0.17;0.17;;;6.00;99.90;;;;;;5052946;28;20079;-73
2022/01/20 11:54:40;;;;;;;0.10;0.10;;;6.00;99.90;;;;;;5052877;28;20040;-74
2022/01/20 11:57:14;;;;;;;0.00;0.00;;;6.50;99.90;;;;;;5053118;28;20090;-73
2022/01/20 11:59:53;;;;;;;1.55;1.45;;;7.20;99.90;;;;;;5053868;28;20037;-72
2022/01/20 12:02:35;;;;;;;0.00;0.00;;;7.90;99.90;;;;;;5054350;28;20043;-72
2022/01/20 12:05:27;;;;;;;0.40;0.40;;;7.30;99.90;;;;;;5052992;28;20036;-72
2022/01/20 12:08:10;;;;;;;;;;;6.70;99.90;;;;;;5053716;28;20037;-72
2022/01/20 12:10:38;;;;;;;0.00;0.00;;;6.30;99.90;;;;;;5052854;28;19920;-72
2022/01/20 12:13:11;;;;;;;0.35;0.35;;;6.10;99.90;;;;;;5054028;28;20045;-72
2022/01/20 12:15:52;;;;;;;0.00;0.00;;;5.90;99.90;;;;;;5053586;28;20425;-72
2022/01/20 12:18:18;;;;;;;0.00;0.00;;;5.80;99.90;;;;;;5053771;28;20494;-72
2022/01/20 12:20:44;;;;;;;0.10;0.10;;;5.70;99.90;;;;;;5053800;28;20033;-71
2022/01/20 12:23:11;;;;;;;0.10;0.10;;;5.60;99.90;;;;;;5053601;28;20535;-71
2022/01/20 12:25:38;;;;;;;0.00;0.00;;;5.60;99.90;;;;;;5052469;28;20029;-72
2022/01/20 12:28:16;;;;;;;0.00;0.00;;;5.50;99.90;;;;;;5052514;28;20065;-72
2022/01/20 12:30:47;;;;;;;0.68;0.68;;;5.50;99.90;;;;;;5052094;28;20033;-72
2022/01/20 12:33:16;;;;;;;0.10;0.10;;;5.50;99.90;;;;;;5052202;28;20505;-72
2022/01/20 12:35:46;;;;;;;0.00;0.00;;;5.40;99.90;;;;;;5051858;28;20033;-71
2022/01/20 12:38:26;;;;;;;0.00;0.00;;;5.40;99.90;;;;;;5052765;28;20032;-71
2022/01/20 12:41:09;;;;;;;0.10;0.10;;;5.40;99.90;;;;;;5052060;28;20032;-71
2022/01/20 12:43:47;;;;;;;0.10;0.10;;;5.40;99.90;;;;;;5051710;28;20509;-72
2022/01/20 12:46:41;;;;;;;0.00;0.00;;;5.30;99.90;;;;;;5053444;28;20155;-72
2022/01/20 12:49:12;;;;;;;0.00;0.00;;;5.40;99.90;;;;;;5050128;28;20051;-72
2022/01/20 12:51:54;;;;;;;0.00;0.00;;;5.30;99.90;;;;;;5051678;28;20037;-72
2022/01/20 12:54:31;;;;;;;;;;;5.20;99.90;;;;;;5052474;28;20064;-72
2022/01/20 12:57:03;;;;;;;0.10;0.10;;;5.20;99.90;;;;;;5053474;28;19956;-72
2022/01/20 12:59:30;;;;;;;;;;;5.10;99.90;;;;;;5059349;28;20040;-72
2022/01/20 13:02:00;;;;;;;0.00;0.00;;;5.10;99.90;;;;;;5055239;28;19913;-72
2022/01/20 13:04:30;;;;;;;0.00;0.00;;;5.10;99.90;;;;;;5071722;28;20112;-72
2022/01/20 13:06:59;;;;;;;0.00;0.00;;;5.10;99.90;;;;;;5072822;28;20024;-72
2022/01/20 13:10:04;;;;;;;0.10;0.10;;;5.10;99.90;;;;;;5072089;28;20124;-72
2022/01/20 13:12:40;;;;;;;0.10;0.10;;;5.10;99.90;;;;;;5071199;28;20071;-72
2022/01/20 13:15:18;;;;;;;0.00;0.00;;;5.30;99.90;;;;;;5067480;28;20079;-72
2022/01/20 13:17:59;;;;;;;0.08;0.08;;;5.30;99.90;;;;;;5052437;28;20029;-73
2022/01/20 13:20:25;;;;;;;0.00;0.00;;;5.30;99.90;;;;;;5051654;28;20124;-72
2022/01/20 13:23:01;;;;;;;0.00;0.00;;;5.40;99.90;;;;;;5052728;28;20120;-73
2022/01/20 13:25:31;;;;;;;0.03;0.03;;;5.40;99.90;;;;;;5051963;28;20128;-72
2022/01/20 13:28:10;;;;;;;0.10;0.10;;;5.40;99.90;;;;;;5051570;28;20428;-73
2022/01/20 13:30:47;;;;;;;0.40;0.40;;;5.40;99.90;;;;;;5052547;28;20033;-73
2022/01/20 13:33:16;;;;;;;0.57;0.57;;;5.50;99.90;;;;;;5051291;28;20051;-72
2022/01/20 13:35:46;;;;;;;0.10;0.10;;;5.50;99.90;;;;;;5051053;28;20029;-72
2022/01/20 13:38:12;;;;;;;0.20;0.20;;;5.50;99.90;;;;;;5052744;28;20029;-72
2022/01/20 13:40:43;;;;;;;0.00;0.00;;;5.40;99.90;;;;;;5051162;28;20496;-72
2022/01/20 13:45:44;;;;;;;0.10;0.10;;;5.20;99.90;;;;;;5050969;28;20044;-71
2022/01/20 13:48:23;;;;;;;0.00;0.00;;;5.20;99.90;;;;;;5052575;28;20029;-71
2022/01/20 13:50:59;;;;;;;0.00;0.00;;;5.30;99.90;;;;;;5051585;28;20045;-71
2022/01/20 13:53:27;;;;;;;0.10;0.10;;;5.50;99.90;;;;;;5050869;28;20489;-72
2022/01/20 13:55:58;;;;;;;0.05;0.05;;;5.90;99.90;;;;;;5050668;28;20041;-71
2022/01/20 13:58:33;;;;;;;0.00;0.00;;;6.30;99.90;;;;;;5050807;28;20029;-73
2022/01/20 14:01:02;;;;;;;0.10;0.10;;;6.60;99.90;;;;;;5052064;28;20525;-74
2022/01/20 14:03:28;;;;;;;0.00;0.00;;;6.60;99.90;;;;;;5052029;28;20086;-73
2022/01/20 14:05:55;;;;;;;0.00;0.00;;;6.40;99.90;;;;;;5051679;28;20037;-72
2022/01/20 14:08:23;;;;;;;0.10;0.10;;;5.90;99.90;;;;;;5052104;28;20037;-73
2022/01/20 14:10:49;;;;;;;0.00;0.00;;;5.20;99.90;;;;;;5050434;28;20041;-73
2022/01/20 14:13:15;;;;;;;0.10;0.10;;;4.80;99.90;;;;;;5051919;28;20094;-72
2022/01/20 14:15:41;;;;;;;0.00;0.00;;;4.20;99.90;;;;;;5066847;28;20122;-73
2022/01/20 14:18:07;;;;;;;0.00;0.00;;;4.10;99.90;;;;;;5051656;28;20118;-72
2022/01/20 14:20:37;;;;;;;0.10;0.10;;;4.00;99.90;;;;;;5051542;28;20032;-72
2022/01/20 14:23:06;;;;;;;0.00;0.00;;;3.90;99.90;;;;;;5051908;28;20057;-72
2022/01/20 14:25:34;;;;;;;0.00;0.00;;;4.10;99.90;;;;;;5066950;28;20114;-73
2022/01/20 14:28:01;;;;;;;0.10;0.10;;;4.70;99.90;;;;;;5050063;28;20398;-72
2022/01/20 14:30:29;;;;;;;0.10;0.10;;;5.10;99.90;;;;;;5050214;28;20032;-72
2022/01/20 14:32:56;;;;;;;0.00;0.00;;;5.40;99.90;;;;;;5050911;28;20128;-72
2022/01/20 14:35:22;;;;;;;0.00;0.00;;;5.50;99.90;;;;;;5066897;28;20033;-72
2022/01/20 14:37:48;;;;;;;0.20;0.20;;;5.80;99.90;;;;;;5051072;28;20025;-72
2022/01/20 14:40:18;;;;;;;0.00;0.00;;;5.90;99.90;;;;;;5050248;28;20099;-73
2022/01/20 14:42:45;;;;;;;0.05;0.05;;;6.30;99.90;;;;;;5051141;28;20033;-73
2022/01/20 14:45:15;;;;;;;0.00;0.00;;;6.50;99.90;;;;;;5051516;28;20033;-73
2022/01/20 14:47:42;;;;;;;0.63;0.57;;;6.60;99.90;;;;;;5049882;28;20034;-72
2022/01/20 14:50:09;;;;;;;0.00;0.00;;;6.70;99.90;;;;;;5050246;28;20039;-72
2022/01/20 14:52:35;;;;;;;0.25;0.25;;;6.70;99.90;;;;;;5050949;28;20102;-72
2022/01/20 14:55:03;;;;;;;0.00;0.00;;;6.80;99.90;;;;;;5063272;28;20032;-72
2022/01/20 14:57:29;;;;;;;0.75;0.65;;;6.90;99.90;;;;;;5071444;28;20041;-72
2022/01/20 14:59:55;;;;;;;0.10;0.10;;;6.90;99.90;;;;;;5071095;28;20073;-72
2022/01/20 15:02:21;;;;;;;0.10;0.10;;;6.90;99.90;;;;;;5071100;28;20044;-73
2022/01/20 15:04:48;;;;;;;0.10;0.10;;;7.00;99.90;;;;;;5074501;28;20039;-71
2022/01/20 15:07:14;;;;;;;0.00;0.00;;;7.00;99.90;;;;;;5075000;28;20385;-71
2022/01/20 15:09:40;;;;;;;12.77;1.63;;;7.00;99.90;;;;;;5068767;28;20021;-72
2022/01/20 15:12:08;;;;;;;2.15;1.83;;;6.80;99.90;;;;;;5054969;28;20087;-71
2022/01/20 15:14:37;;;;;;;0.00;0.00;;;6.40;99.90;;;;;;5055128;28;20112;-72
2022/01/20 15:17:04;;;;;;;0.00;0.00;;;6.30;99.90;;;;;;5054946;28;20434;-72
2022/01/20 15:19:30;;;;;;;3.08;1.58;;;6.30;99.90;;;;;;5055236;28;20029;-72
2022/01/20 15:21:56;;;;;;;0.00;0.00;;;5.80;99.90;;;;;;5054785;28;20381;-72
2022/01/20 15:24:22;;;;;;;0.10;0.10;;;5.70;99.90;;;;;;5055099;28;20029;-72
2022/01/20 15:26:48;;;;;;;0.03;0.03;;;5.50;99.90;;;;;;5054875;28;20504;-71
2022/01/20 15:29:14;;;;;;;0.10;0.10;;;5.30;99.90;;;;;;5054709;28;20035;-71
2022/01/20 15:31:41;;;;;;;0.10;0.10;;;5.00;99.90;;;;;;5036622;28;20118;-71
2022/01/20 15:34:13;;;;;;;0.10;0.10;;;4.70;99.90;;;;;;5054879;28;20033;-71
2022/01/20 15:36:41;;;;;;;0.10;0.10;;;4.60;99.90;;;;;;5054518;28;20115;-71
2022/01/20 15:39:09;;;;;;;0.05;0.05;;;4.50;99.90;;;;;;5053447;28;20086;-71
2022/01/20 15:41:35;;;;;;;0.10;0.10;;;4.30;99.90;;;;;;5053435;28;20033;-71
2022/01/20 15:44:02;;;;;;;0.10;0.10;;;4.30;99.90;;;;;;5053190;28;20050;-71
2022/01/20 15:46:32;;;;;;;0.82;0.80;;;4.30;99.90;;;;;;5053344;28;20398;-71
2022/01/20 15:48:58;;;;;;;0.05;0.05;;;4.20;99.90;;;;;;5054664;28;20028;-71
2022/01/20 15:51:24;;;;;;;0.00;0.00;;;4.10;99.90;;;;;;5054160;28;20036;-71
2022/01/20 15:53:50;;;;;;;0.20;0.20;;;4.00;99.90;;;;;;5052485;28;20022;-71
2022/01/20 15:56:16;;;;;;;0.10;0.10;;;4.00;99.90;;;;;;5054378;28;20029;-71
2022/01/20 15:58:43;;;;;;;0.82;0.80;;;3.90;99.90;;;;;;5069756;28;20025;-69
2022/01/20 16:01:09;;;;;;;0.10;0.10;;;3.90;99.90;;;;;;5052508;28;20040;-70
2022/01/20 16:03:38;;;;;;;0.00;0.00;;;3.80;99.90;;;;;;5053871;28;20037;-70
2022/01/20 16:06:05;;;;;;;0.00;0.00;;;3.70;99.90;;;;;;5054261;28;20116;-71
2022/01/20 16:08:31;;;;;;;0.00;0.00;;;3.70;99.90;;;;;;5053099;28;20040;-70
2022/01/20 16:10:57;;;;;;;0.28;0.28;;;3.70;99.90;;;;;;5052711;28;20091;-71